Time;durP1;ratioP1;P1;durP2;ratioP2;P2;SDS_P1;SDS_P2;PMS_P1;PMS_P2;Temp;Humidity;BMP_temperature;BMP_pressure;BME280_temperature;BME280_humidity;BME280_pressure;Samples;Min_cycle;Max_cycle;Signal;HPM_P1;HPM_P2
2023/10/09 00:02:26;;;;;;;0.80;0.80;;;;;;;;;;5113966;28;20463;-64
2023/10/09 00:04:54;;;;;;;0.70;0.70;;;;;;;;;;5114102;28;20500;-64
2023/10/09 00:07:23;;;;;;;1.13;1.13;;;;;;;;;;5114333;28;20444;-65
2023/10/09 00:09:50;;;;;;;0.80;0.80;;;;;;;;;;5113974;28;20442;-64
2023/10/09 00:12:22;;;;;;;0.90;0.90;;;;;;;;;;5113884;28;20487;-64
2023/10/09 00:14:50;;;;;;;0.80;0.80;;;;;;;;;;5113745;28;20426;-64
2023/10/09 00:17:30;;;;;;;0.70;0.70;;;;;;;;;;5114183;28;20794;-64
2023/10/09 00:20:07;;;;;;;0.80;0.80;;;;;;;;;;5113555;28;20424;-64
2023/10/09 00:22:41;;;;;;;0.80;0.80;;;;;;;;;;5114152;28;20442;-64
2023/10/09 00:25:14;;;;;;;2.07;1.47;;;;;;;;;;5114065;28;20464;-64
2023/10/09 00:27:45;;;;;;;1.00;1.00;;;;;;;;;;5114301;28;20845;-64
2023/10/09 00:30:15;;;;;;;0.80;0.80;;;;;;;;;;5113814;28;20418;-64
2023/10/09 00:32:58;;;;;;;0.80;0.80;;;;;;;;;;5113961;28;20524;-64
2023/10/09 00:35:46;;;;;;;1.87;1.77;;;;;;;;;;5114290;28;20441;-64
2023/10/09 00:38:23;;;;;;;0.90;0.90;;;;;;;;;;5113756;28;20485;-64
2023/10/09 00:41:02;;;;;;;0.80;0.80;;;;;;;;;;5113878;28;20797;-64
2023/10/09 00:43:31;;;;;;;0.90;0.90;;;;;;;;;;5113847;28;20503;-64
2023/10/09 00:46:00;;;;;;;0.80;0.80;;;;;;;;;;5113388;28;20810;-64
2023/10/09 00:48:36;;;;;;;1.00;1.00;;;;;;;;;;5113353;28;20475;-64
2023/10/09 00:51:16;;;;;;;0.80;0.80;;;;;;;;;;5113936;28;20557;-64
2023/10/09 00:53:44;;;;;;;0.80;0.80;;;;;;;;;;5113207;28;20467;-64
2023/10/09 00:56:12;;;;;;;0.70;0.70;;;;;;;;;;5113235;28;20482;-64
2023/10/09 00:58:43;;;;;;;0.80;0.80;;;;;;;;;;5113387;28;20442;-64
2023/10/09 01:01:15;;;;;;;0.80;0.80;;;;;;;;;;5113516;28;20429;-64
2023/10/09 01:03:43;;;;;;;1.00;1.00;;;;;;;;;;5113474;28;20430;-64
2023/10/09 01:06:21;;;;;;;0.80;0.80;;;;;;;;;;5113089;28;20487;-64
2023/10/09 01:08:56;;;;;;;0.90;0.90;;;;;;;;;;5112656;28;20958;-64
2023/10/09 01:11:29;;;;;;;1.13;1.13;;;;;;;;;;5113502;28;20435;-64
2023/10/09 01:14:11;;;;;;;1.00;1.00;;;;;;;;;;5112851;28;20470;-64
2023/10/09 01:16:41;;;;;;;1.20;1.13;;;;;;;;;;5113424;28;20844;-64
2023/10/09 01:19:13;;;;;;;0.80;0.80;;;;;;;;;;5113127;28;20508;-64
2023/10/09 01:21:40;;;;;;;1.00;1.00;;;;;;;;;;5113740;28;20818;-64
2023/10/09 01:24:09;;;;;;;0.80;0.80;;;;;;;;;;5113255;28;20439;-64
2023/10/09 01:26:44;;;;;;;0.80;0.80;;;;;;;;;;5112590;28;21044;-64
2023/10/09 01:29:14;;;;;;;0.80;0.80;;;;;;;;;;5113131;28;20448;-64
2023/10/09 01:31:46;;;;;;;3.63;1.77;;;;;;;;;;5113009;28;20430;-64
2023/10/09 01:34:14;;;;;;;0.80;0.80;;;;;;;;;;5113383;28;20796;-65
2023/10/09 01:36:42;;;;;;;0.97;0.97;;;;;;;;;;5112561;28;20776;-64
2023/10/09 01:39:23;;;;;;;0.80;0.80;;;;;;;;;;5113171;28;20746;-64
2023/10/09 01:41:52;;;;;;;0.80;0.80;;;;;;;;;;5112518;28;20814;-64
2023/10/09 01:44:19;;;;;;;0.80;0.80;;;;;;;;;;5112920;28;20448;-64
2023/10/09 01:46:46;;;;;;;2.70;1.67;;;;;;;;;;5112408;28;21004;-64
2023/10/09 01:49:21;;;;;;;0.90;0.90;;;;;;;;;;5112747;28;20479;-64
2023/10/09 01:51:50;;;;;;;0.90;0.90;;;;;;;;;;5112491;28;20414;-64
2023/10/09 01:54:33;;;;;;;1.20;1.10;;;;;;;;;;5112539;28;20437;-64
2023/10/09 01:57:05;;;;;;;0.80;0.80;;;;;;;;;;5112535;28;20955;-64
2023/10/09 01:59:32;;;;;;;0.80;0.80;;;;;;;;;;5113142;28;20491;-64
2023/10/09 02:02:25;;;;;;;0.80;0.80;;;;;;;;;;5112185;28;20448;-63
2023/10/09 02:04:50;;;;;;;0.80;0.80;;;;;;;;;;5112218;28;20931;-63
2023/10/09 02:07:22;;;;;;;0.80;0.80;;;;;;;;;;5112489;28;20840;-63
2023/10/09 02:09:51;;;;;;;0.80;0.80;;;;;;;;;;5112455;28;20421;-63
2023/10/09 02:12:18;;;;;;;0.97;0.97;;;;;;;;;;5112392;28;20446;-63
2023/10/09 02:14:45;;;;;;;1.80;1.70;;;;;;;;;;5112241;28;20511;-63
2023/10/09 02:17:19;;;;;;;0.80;0.80;;;;;;;;;;5112208;28;20445;-64
2023/10/09 02:19:49;;;;;;;1.97;1.87;;;;;;;;;;5112789;28;20483;-63
2023/10/09 02:22:17;;;;;;;0.97;0.97;;;;;;;;;;5116360;28;20431;-63
2023/10/09 02:24:57;;;;;;;0.80;0.80;;;;;;;;;;5116376;28;20445;-64
2023/10/09 02:27:53;;;;;;;1.03;1.03;;;;;;;;;;5115654;28;20918;-64
2023/10/09 02:30:26;;;;;;;0.80;0.80;;;;;;;;;;5116026;28;20911;-63
2023/10/09 02:33:06;;;;;;;1.63;1.53;;;;;;;;;;5115236;28;20442;-64
2023/10/09 02:35:38;;;;;;;3.33;2.70;;;;;;;;;;5115566;28;20429;-63
2023/10/09 02:38:14;;;;;;;1.00;1.00;;;;;;;;;;5115799;28;20517;-64
2023/10/09 02:41:00;;;;;;;1.37;1.27;;;;;;;;;;5115863;28;20517;-63
2023/10/09 02:43:34;;;;;;;0.80;0.80;;;;;;;;;;5115442;28;20434;-63
2023/10/09 02:46:12;;;;;;;1.00;1.00;;;;;;;;;;5115344;28;20515;-64
2023/10/09 02:48:42;;;;;;;0.80;0.80;;;;;;;;;;5115431;28;20469;-63
2023/10/09 02:51:16;;;;;;;1.23;1.13;;;;;;;;;;5115542;28;20449;-63
2023/10/09 02:53:43;;;;;;;0.90;0.90;;;;;;;;;;5115722;28;20459;-64
2023/10/09 02:56:13;;;;;;;0.77;0.77;;;;;;;;;;5115858;28;20792;-63
2023/10/09 02:58:43;;;;;;;0.80;0.80;;;;;;;;;;5115498;28;20446;-63
2023/10/09 03:01:13;;;;;;;1.00;1.00;;;;;;;;;;5115463;28;20447;-63
2023/10/09 03:03:41;;;;;;;1.50;1.40;;;;;;;;;;5115176;28;20925;-63
2023/10/09 03:06:11;;;;;;;4.57;1.63;;;;;;;;;;5115212;28;20478;-63
2023/10/09 03:08:38;;;;;;;1.37;1.27;;;;;;;;;;5115443;28;20428;-64
2023/10/09 03:11:08;;;;;;;1.47;1.37;;;;;;;;;;5114956;28;20855;-64
2023/10/09 03:13:35;;;;;;;2.70;2.50;;;;;;;;;;5114730;28;20442;-64
2023/10/09 03:16:04;;;;;;;0.80;0.80;;;;;;;;;;5115173;28;20813;-64
2023/10/09 03:18:32;;;;;;;1.13;1.03;;;;;;;;;;5115299;28;20520;-64
2023/10/09 03:20:59;;;;;;;0.90;0.90;;;;;;;;;;5114656;28;20443;-64
2023/10/09 03:23:26;;;;;;;1.03;1.03;;;;;;;;;;5114593;28;20894;-64
2023/10/09 03:25:53;;;;;;;1.67;1.60;;;;;;;;;;5114466;28;20507;-64
2023/10/09 03:28:20;;;;;;;1.80;1.67;;;;;;;;;;5114672;28;20441;-64
2023/10/09 03:30:48;;;;;;;0.80;0.80;;;;;;;;;;5114603;28;20446;-64
2023/10/09 03:33:16;;;;;;;0.93;0.93;;;;;;;;;;5114637;28;20441;-63
2023/10/09 03:35:44;;;;;;;1.53;1.43;;;;;;;;;;5114447;28;20822;-64
2023/10/09 03:38:16;;;;;;;0.80;0.80;;;;;;;;;;5114813;28;20524;-64
2023/10/09 03:40:44;;;;;;;1.30;1.20;;;;;;;;;;5115253;28;20553;-65
2023/10/09 03:43:11;;;;;;;1.53;1.43;;;;;;;;;;5114549;28;20442;-65
2023/10/09 03:45:45;;;;;;;0.70;0.70;;;;;;;;;;5114481;28;20477;-65
2023/10/09 03:48:20;;;;;;;1.63;1.53;;;;;;;;;;5114587;28;20495;-64
2023/10/09 03:50:55;;;;;;;1.90;1.80;;;;;;;;;;5114183;28;20429;-64
2023/10/09 03:53:22;;;;;;;0.80;0.80;;;;;;;;;;5107687;28;20450;-64
2023/10/09 03:55:50;;;;;;;1.37;1.33;;;;;;;;;;5113397;28;20442;-64
2023/10/09 03:58:18;;;;;;;2.27;2.07;;;;;;;;;;5113376;28;20564;-64
2023/10/09 04:00:46;;;;;;;2.30;2.13;;;;;;;;;;5113460;28;20456;-63
2023/10/09 04:03:14;;;;;;;1.00;1.00;;;;;;;;;;5112497;28;20520;-63
2023/10/09 04:05:42;;;;;;;1.03;1.03;;;;;;;;;;5113313;28;20480;-63
2023/10/09 04:08:19;;;;;;;0.80;0.80;;;;;;;;;;5113288;28;20440;-63
2023/10/09 04:10:52;;;;;;;0.90;0.90;;;;;;;;;;5113214;28;20443;-63
2023/10/09 04:13:22;;;;;;;1.17;1.17;;;;;;;;;;5113503;28;20768;-63
2023/10/09 04:15:52;;;;;;;1.03;1.03;;;;;;;;;;5113472;28;20465;-63
2023/10/09 04:18:20;;;;;;;4.07;3.80;;;;;;;;;;5113489;28;20530;-63
2023/10/09 04:23:59;;;;;;;0.80;0.80;;;;;;;;;;5112670;28;20441;-64
2023/10/09 04:26:24;;;;;;;0.80;0.80;;;;;;;;;;5112817;28;20974;-64
2023/10/09 04:28:53;;;;;;;0.80;0.80;;;;;;;;;;5112872;28;20535;-64
2023/10/09 04:31:22;;;;;;;0.80;0.80;;;;;;;;;;5113263;28;20802;-64
2023/10/09 04:34:22;;;;;;;0.80;0.80;;;;;;;;;;5113108;28;20528;-64
2023/10/09 04:36:51;;;;;;;1.20;1.20;;;;;;;;;;5112527;28;20435;-63
2023/10/09 04:39:46;;;;;;;1.47;1.00;;;;;;;;;;5112787;28;20432;-62
2023/10/09 04:42:26;;;;;;;1.63;1.53;;;;;;;;;;5112578;28;20426;-62
2023/10/09 04:47:57;;;;;;;1.10;1.00;;;;;;;;;;5036416;28;20513;-62
2023/10/09 04:50:45;;;;;;;0.87;0.87;;;;;;;;;;5111586;28;20447;-63
2023/10/09 04:53:25;;;;;;;1.00;1.00;;;;;;;;;;5112926;28;20432;-62
2023/10/09 04:55:57;;;;;;;0.80;0.80;;;;;;;;;;5113365;28;20433;-62
2023/10/09 04:58:25;;;;;;;0.80;0.80;;;;;;;;;;5113115;28;20484;-62
2023/10/09 05:01:12;;;;;;;1.23;1.13;;;;;;;;;;5113151;28;20472;-62
2023/10/09 05:03:45;;;;;;;1.50;1.40;;;;;;;;;;5113011;28;21116;-63
2023/10/09 05:06:42;;;;;;;0.80;0.80;;;;;;;;;;5111685;28;20538;-65
2023/10/09 05:09:09;;;;;;;0.80;0.80;;;;;;;;;;5112772;28;20436;-63
2023/10/09 05:14:37;;;;;;;1.97;1.87;;;;;;;;;;5112980;28;20535;-63
2023/10/09 05:17:09;;;;;;;1.60;1.50;;;;;;;;;;5113254;28;20851;-63
2023/10/09 05:22:36;;;;;;;2.10;1.83;;;;;;;;;;5109385;28;20429;-63
2023/10/09 05:25:14;;;;;;;1.27;1.27;;;;;;;;;;5112363;28;20422;-63
2023/10/09 05:27:51;;;;;;;0.80;0.80;;;;;;;;;;5111438;27;20979;-64
2023/10/09 05:30:33;;;;;;;0.90;0.90;;;;;;;;;;5112651;28;20449;-64
2023/10/09 05:33:27;;;;;;;1.40;1.40;;;;;;;;;;5112759;28;20915;-63
2023/10/09 05:36:05;;;;;;;0.83;0.83;;;;;;;;;;5112731;28;20445;-63
2023/10/09 05:38:35;;;;;;;0.80;0.80;;;;;;;;;;5112971;28;20906;-63
2023/10/09 05:41:31;;;;;;;1.50;1.40;;;;;;;;;;5113179;28;20548;-63
2023/10/09 05:46:36;;;;;;;1.73;1.47;;;;;;;;;;5071352;28;20472;-63
2023/10/09 05:49:09;;;;;;;2.40;1.10;;;;;;;;;;5113713;28;20473;-63
2023/10/09 05:51:43;;;;;;;0.90;0.90;;;;;;;;;;5112605;28;20422;-63
2023/10/09 05:54:53;;;;;;;1.27;1.17;;;;;;;;;;5113764;28;20437;-63
2023/10/09 06:08:07;;;;;;;0.90;0.90;;;;;;;;;;5116578;28;20461;-63
2023/10/09 06:10:40;;;;;;;0.80;0.80;;;;;;;;;;5116456;28;20432;-63
2023/10/09 06:13:07;;;;;;;1.40;1.30;;;;;;;;;;5116461;28;20773;-63
2023/10/09 06:18:35;;;;;;;0.70;0.70;;;;;;;;;;5116179;28;20433;-63
2023/10/09 06:21:10;;;;;;;0.80;0.80;;;;;;;;;;5116008;28;20441;-63
2023/10/09 06:26:26;;;;;;;0.80;0.80;;;;;;;;;;5116308;28;20586;-63
2023/10/09 06:29:14;;;;;;;0.90;0.90;;;;;;;;;;5116815;28;20457;-63
2023/10/09 06:31:58;;;;;;;0.90;0.90;;;;;;;;;;5116189;28;20786;-63
2023/10/09 06:34:32;;;;;;;2.23;2.13;;;;;;;;;;5116665;28;20819;-63
2023/10/09 06:37:05;;;;;;;1.90;1.30;;;;;;;;;;5116191;28;20457;-63
2023/10/09 06:39:50;;;;;;;1.00;1.00;;;;;;;;;;5116440;28;20432;-63
2023/10/09 06:45:04;;;;;;;5.23;1.87;;;;;;;;;;5115418;28;20528;-63
2023/10/09 06:47:40;;;;;;;1.23;1.23;;;;;;;;;;5115633;28;20860;-63
2023/10/09 06:50:25;;;;;;;1.90;1.80;;;;;;;;;;5116613;28;20868;-63
2023/10/09 06:53:19;;;;;;;1.77;1.67;;;;;;;;;;5115512;28;20877;-63
2023/10/09 06:55:48;;;;;;;1.13;1.13;;;;;;;;;;5115430;28;20440;-63
2023/10/09 06:58:22;;;;;;;1.73;1.63;;;;;;;;;;5115660;28;20551;-63
2023/10/09 07:00:54;;;;;;;1.53;1.43;;;;;;;;;;5115732;28;20491;-63
2023/10/09 07:03:29;;;;;;;0.80;0.80;;;;;;;;;;5116236;28;20446;-63
2023/10/09 07:06:04;;;;;;;2.50;2.40;;;;;;;;;;5115069;28;20458;-63
2023/10/09 07:08:37;;;;;;;1.73;1.63;;;;;;;;;;5115394;28;21102;-63
2023/10/09 07:11:21;;;;;;;1.77;1.67;;;;;;;;;;5115282;28;20529;-63
2023/10/09 07:13:53;;;;;;;1.00;1.00;;;;;;;;;;5115888;28;20430;-63
2023/10/09 07:16:38;;;;;;;0.80;0.80;;;;;;;;;;5115416;28;20431;-63
2023/10/09 07:19:26;;;;;;;1.17;1.17;;;;;;;;;;5115168;28;20515;-63
2023/10/09 07:21:54;;;;;;;1.00;1.00;;;;;;;;;;5115151;28;20438;-63
2023/10/09 07:24:37;;;;;;;1.33;1.23;;;;;;;;;;5115003;28;20442;-63
2023/10/09 07:27:09;;;;;;;1.57;1.47;;;;;;;;;;5115070;28;20921;-63
2023/10/09 07:29:47;;;;;;;2.33;2.23;;;;;;;;;;5114879;28;20950;-63
2023/10/09 07:32:20;;;;;;;3.47;3.20;;;;;;;;;;5115176;28;20488;-63
2023/10/09 07:34:58;;;;;;;1.43;1.33;;;;;;;;;;5114835;28;20934;-63
2023/10/09 07:37:30;;;;;;;3.47;3.17;;;;;;;;;;5114867;28;20433;-63
2023/10/09 07:39:58;;;;;;;1.97;1.90;;;;;;;;;;5115327;28;20421;-64
2023/10/09 07:42:43;;;;;;;4.30;1.53;;;;;;;;;;5114438;28;20450;-64
2023/10/09 07:46:08;;;;;;;0.80;0.80;;;;;;;;;;5114956;28;20921;-65
2023/10/09 07:48:05;;;;;;;1.10;1.10;;;;;;;;;;5113761;27;20534;-63
2023/10/09 07:50:48;;;;;;;2.30;2.10;;;;;;;;;;5114708;28;20449;-63
2023/10/09 07:53:26;;;;;;;2.03;1.93;;;;;;;;;;5114544;28;20466;-63
2023/10/09 07:56:06;;;;;;;1.53;1.43;;;;;;;;;;5114640;28;20444;-63
2023/10/09 07:58:45;;;;;;;1.10;1.10;;;;;;;;;;5114879;28;20460;-63
2023/10/09 08:01:22;;;;;;;1.33;1.27;;;;;;;;;;5114356;28;20442;-63
2023/10/09 08:03:57;;;;;;;2.80;2.20;;;;;;;;;;5114467;28;20752;-63
2023/10/09 08:06:42;;;;;;;1.33;1.23;;;;;;;;;;5113979;28;20510;-63
2023/10/09 08:09:19;;;;;;;1.13;1.13;;;;;;;;;;5114158;28;20926;-63
2023/10/09 08:14:45;;;;;;;0.70;0.70;;;;;;;;;;5079524;28;20422;-63
2023/10/09 08:17:14;;;;;;;2.13;2.00;;;;;;;;;;5113543;28;20787;-63
2023/10/09 08:19:53;;;;;;;1.00;1.00;;;;;;;;;;5113484;28;21012;-63
2023/10/09 08:22:42;;;;;;;0.80;0.80;;;;;;;;;;5114337;28;20481;-63
2023/10/09 08:25:25;;;;;;;2.50;2.40;;;;;;;;;;5113720;28;20483;-63
2023/10/09 08:27:55;;;;;;;0.90;0.90;;;;;;;;;;5114082;28;20468;-63
2023/10/09 08:33:39;;;;;;;1.97;1.83;;;;;;;;;;5113021;28;20775;-63
2023/10/09 08:36:04;;;;;;;1.20;1.20;;;;;;;;;;5113865;28;20432;-63
2023/10/09 08:38:42;;;;;;;1.53;1.40;;;;;;;;;;5114172;28;20433;-63
2023/10/09 08:41:21;;;;;;;0.80;0.80;;;;;;;;;;5113395;28;20820;-63
2023/10/09 08:43:51;;;;;;;0.80;0.80;;;;;;;;;;5113668;28;20459;-63
2023/10/09 08:46:20;;;;;;;2.47;2.27;;;;;;;;;;5113405;28;20457;-63
2023/10/09 08:48:48;;;;;;;2.30;2.17;;;;;;;;;;5113457;28;21073;-63
2023/10/09 08:51:16;;;;;;;1.63;1.53;;;;;;;;;;5113596;28;20433;-63
2023/10/09 08:53:45;;;;;;;1.17;1.17;;;;;;;;;;5113214;28;20440;-63
2023/10/09 08:56:15;;;;;;;1.63;1.53;;;;;;;;;;5113344;28;20454;-63
2023/10/09 08:58:42;;;;;;;1.30;1.20;;;;;;;;;;5113672;28;20459;-63
2023/10/09 09:01:11;;;;;;;1.00;1.00;;;;;;;;;;5113569;28;20537;-63
2023/10/09 09:03:43;;;;;;;0.80;0.80;;;;;;;;;;5112923;28;20440;-62
2023/10/09 09:06:14;;;;;;;1.23;1.23;;;;;;;;;;5113319;28;20444;-62
2023/10/09 09:08:44;;;;;;;0.80;0.80;;;;;;;;;;5113422;28;20877;-62
2023/10/09 09:11:16;;;;;;;1.43;1.33;;;;;;;;;;5113055;28;20432;-62
2023/10/09 09:13:48;;;;;;;1.63;1.10;;;;;;;;;;5113333;28;20478;-63
2023/10/09 09:16:17;;;;;;;1.80;1.70;;;;;;;;;;5113431;28;20432;-63
2023/10/09 09:19:03;;;;;;;2.00;1.90;;;;;;;;;;5113195;28;20436;-63
2023/10/09 09:21:32;;;;;;;0.90;0.90;;;;;;;;;;5112958;28;20421;-63
2023/10/09 09:24:01;;;;;;;1.20;1.20;;;;;;;;;;5112745;28;20444;-63
2023/10/09 09:26:44;;;;;;;1.20;1.20;;;;;;;;;;5113170;28;20449;-63
2023/10/09 09:29:12;;;;;;;1.93;1.83;;;;;;;;;;5113834;28;20502;-63
2023/10/09 09:31:41;;;;;;;1.17;1.07;;;;;;;;;;5117281;28;20449;-63
2023/10/09 09:34:16;;;;;;;0.93;0.93;;;;;;;;;;5117170;28;20849;-63
2023/10/09 09:36:54;;;;;;;0.80;0.80;;;;;;;;;;5117049;28;20452;-63
2023/10/09 09:39:28;;;;;;;1.03;1.03;;;;;;;;;;5116839;28;20445;-63
2023/10/09 09:42:07;;;;;;;0.80;0.80;;;;;;;;;;5116874;28;20424;-63
2023/10/09 09:44:43;;;;;;;2.03;1.93;;;;;;;;;;5116685;28;20423;-63
2023/10/09 09:47:12;;;;;;;0.80;0.80;;;;;;;;;;5117235;28;20429;-63
2023/10/09 09:49:40;;;;;;;1.00;1.00;;;;;;;;;;5096203;28;20440;-63
2023/10/09 09:52:10;;;;;;;1.83;1.77;;;;;;;;;;5096204;28;20503;-63
2023/10/09 09:54:37;;;;;;;1.00;1.00;;;;;;;;;;5096160;28;21001;-63
2023/10/09 09:57:10;;;;;;;1.83;1.73;;;;;;;;;;5096737;28;20495;-63
2023/10/09 09:59:49;;;;;;;2.40;2.30;;;;;;;;;;5095989;28;20541;-63
2023/10/09 10:02:20;;;;;;;0.90;0.90;;;;;;;;;;5096435;28;20789;-63
2023/10/09 10:04:50;;;;;;;1.10;1.00;;;;;;;;;;5096255;28;20429;-63
2023/10/09 10:07:21;;;;;;;1.00;1.00;;;;;;;;;;5096196;28;20477;-63
2023/10/09 10:09:54;;;;;;;1.67;1.57;;;;;;;;;;5096320;28;20492;-63
2023/10/09 10:12:46;;;;;;;2.30;2.10;;;;;;;;;;5096242;28;20488;-63
2023/10/09 10:15:15;;;;;;;1.97;1.53;;;;;;;;;;5095720;28;20442;-63
2023/10/09 10:17:58;;;;;;;0.80;0.80;;;;;;;;;;5095893;28;20442;-63
2023/10/09 10:20:25;;;;;;;0.80;0.80;;;;;;;;;;5095653;28;20463;-62
2023/10/09 10:22:54;;;;;;;0.80;0.80;;;;;;;;;;5095656;28;21043;-62
2023/10/09 10:25:35;;;;;;;0.90;0.90;;;;;;;;;;5095559;28;20923;-63
2023/10/09 10:28:28;;;;;;;1.73;1.57;;;;;;;;;;5095676;28;20571;-63
2023/10/09 10:30:59;;;;;;;0.80;0.80;;;;;;;;;;5095820;28;20550;-64
2023/10/09 10:33:27;;;;;;;1.13;1.13;;;;;;;;;;5095884;28;20982;-64
2023/10/09 10:35:56;;;;;;;2.17;2.07;;;;;;;;;;5096323;28;20491;-63
2023/10/09 10:38:32;;;;;;;2.00;1.90;;;;;;;;;;5095547;28;20452;-64
2023/10/09 10:41:11;;;;;;;3.73;3.53;;;;;;;;;;5095066;28;20512;-64
2023/10/09 10:46:34;;;;;;;1.30;1.20;;;;;;;;;;5088606;28;20426;-64
2023/10/09 10:49:14;;;;;;;0.80;0.80;;;;;;;;;;5111088;28;20495;-64
2023/10/09 10:51:48;;;;;;;0.80;0.80;;;;;;;;;;5116559;28;20432;-64
2023/10/09 10:54:45;;;;;;;2.20;2.10;;;;;;;;;;5115819;28;20425;-64
2023/10/09 10:57:28;;;;;;;0.80;0.80;;;;;;;;;;5116342;28;20511;-64
2023/10/09 11:00:12;;;;;;;2.10;1.97;;;;;;;;;;5116033;28;20456;-63
2023/10/09 11:02:40;;;;;;;0.90;0.90;;;;;;;;;;5115395;28;20432;-63
2023/10/09 11:05:23;;;;;;;1.00;1.00;;;;;;;;;;5115346;28;20459;-63
2023/10/09 11:07:52;;;;;;;0.97;0.97;;;;;;;;;;5115229;28;20465;-63
2023/10/09 11:10:28;;;;;;;2.07;1.87;;;;;;;;;;5115415;28;20451;-63
2023/10/09 11:15:56;;;;;;;1.67;1.57;;;;;;;;;;5115453;28;20496;-63
2023/10/09 11:18:26;;;;;;;1.30;1.20;;;;;;;;;;5115517;28;20423;-62
2023/10/09 11:23:53;;;;;;;1.13;1.10;;;;;;;;;;5113987;28;20423;-63
2023/10/09 11:26:25;;;;;;;0.90;0.90;;;;;;;;;;5115721;28;20533;-63
2023/10/09 11:29:13;;;;;;;1.40;1.30;;;;;;;;;;5115285;28;20496;-63
2023/10/09 11:31:45;;;;;;;0.90;0.90;;;;;;;;;;5115288;28;20479;-63
2023/10/09 11:34:28;;;;;;;1.87;1.77;;;;;;;;;;5115236;28;20420;-63
2023/10/09 11:36:55;;;;;;;1.40;1.30;;;;;;;;;;5114943;28;20847;-63
2023/10/09 11:39:31;;;;;;;0.80;0.80;;;;;;;;;;5115342;28;20456;-63
2023/10/09 11:42:04;;;;;;;0.90;0.90;;;;;;;;;;5114748;28;20973;-62
2023/10/09 11:44:41;;;;;;;0.70;0.70;;;;;;;;;;5114857;28;20426;-63
2023/10/09 11:47:24;;;;;;;1.00;1.00;;;;;;;;;;5115038;28;20517;-63
2023/10/09 11:50:11;;;;;;;1.23;1.13;;;;;;;;;;5114419;28;20415;-63
2023/10/09 11:53:08;;;;;;;1.93;1.83;;;;;;;;;;5113598;28;20442;-63
2023/10/09 11:55:35;;;;;;;0.70;0.70;;;;;;;;;;5112925;28;20438;-63
2023/10/09 11:58:02;;;;;;;0.80;0.80;;;;;;;;;;5113116;28;20446;-63
2023/10/09 12:00:30;;;;;;;0.80;0.80;;;;;;;;;;5113173;28;20513;-63
2023/10/09 12:03:04;;;;;;;0.70;0.70;;;;;;;;;;5113515;28;20946;-63
2023/10/09 12:05:33;;;;;;;0.80;0.80;;;;;;;;;;5113414;28;20476;-63
2023/10/09 12:08:01;;;;;;;0.80;0.80;;;;;;;;;;5113855;28;20477;-63
2023/10/09 12:10:29;;;;;;;1.10;1.10;;;;;;;;;;5113737;28;20439;-63
2023/10/09 12:12:58;;;;;;;0.80;0.80;;;;;;;;;;5113085;28;20442;-62
2023/10/09 12:15:25;;;;;;;2.23;2.13;;;;;;;;;;5113575;28;20441;-62
2023/10/09 12:18:01;;;;;;;1.13;1.13;;;;;;;;;;5113575;28;20446;-62
2023/10/09 12:20:32;;;;;;;2.13;2.03;;;;;;;;;;5113373;28;20456;-63
2023/10/09 12:22:59;;;;;;;1.80;1.30;;;;;;;;;;5103046;28;20442;-63
2023/10/09 12:25:31;;;;;;;0.90;0.90;;;;;;;;;;5093173;28;20526;-63
2023/10/09 12:27:59;;;;;;;0.70;0.70;;;;;;;;;;5093133;28;20922;-63
2023/10/09 12:30:27;;;;;;;2.43;2.33;;;;;;;;;;5092433;28;20926;-62
2023/10/09 12:32:57;;;;;;;0.97;0.97;;;;;;;;;;5092986;28;20440;-63
2023/10/09 12:35:25;;;;;;;4.27;1.67;;;;;;;;;;5092673;28;20810;-63
2023/10/09 12:37:54;;;;;;;2.03;1.93;;;;;;;;;;5092518;28;20446;-62
2023/10/09 12:40:25;;;;;;;0.80;0.80;;;;;;;;;;5092798;28;20439;-62
2023/10/09 12:42:53;;;;;;;0.80;0.80;;;;;;;;;;5092656;28;20423;-62
2023/10/09 12:45:26;;;;;;;0.80;0.80;;;;;;;;;;5092370;28;20530;-62
2023/10/09 12:47:54;;;;;;;1.20;1.10;;;;;;;;;;5092316;28;20482;-62
2023/10/09 12:50:27;;;;;;;0.80;0.80;;;;;;;;;;5092780;28;20427;-62
2023/10/09 12:53:01;;;;;;;1.17;1.07;;;;;;;;;;5092580;28;20962;-62
2023/10/09 12:55:32;;;;;;;1.00;1.00;;;;;;;;;;5092748;28;20440;-63
2023/10/09 12:58:06;;;;;;;0.70;0.70;;;;;;;;;;5093035;28;20449;-63
2023/10/09 13:00:39;;;;;;;2.07;1.97;;;;;;;;;;5092890;28;20936;-62
2023/10/09 13:03:16;;;;;;;3.50;3.00;;;;;;;;;;5093929;28;20443;-62
2023/10/09 13:05:51;;;;;;;0.80;0.80;;;;;;;;;;5091796;28;20427;-63
2023/10/09 13:08:23;;;;;;;0.70;0.70;;;;;;;;;;5092093;28;20485;-62
2023/10/09 13:10:58;;;;;;;0.80;0.80;;;;;;;;;;5092307;28;20938;-62
2023/10/09 13:13:26;;;;;;;1.93;1.27;;;;;;;;;;5092975;28;20433;-62
2023/10/09 13:15:54;;;;;;;0.80;0.80;;;;;;;;;;5092308;28;20442;-72
2023/10/09 13:18:21;;;;;;;0.80;0.80;;;;;;;;;;5092470;28;20455;-70
2023/10/09 13:20:48;;;;;;;1.97;1.87;;;;;;;;;;5092581;28;20554;-65
2023/10/09 13:23:16;;;;;;;3.03;2.83;;;;;;;;;;5092523;28;20525;-64
2023/10/09 13:25:44;;;;;;;1.20;1.10;;;;;;;;;;5092243;28;20545;-63
2023/10/09 13:28:12;;;;;;;1.33;1.23;;;;;;;;;;5091887;28;20806;-62
2023/10/09 13:30:48;;;;;;;0.83;0.83;;;;;;;;;;5091269;28;20540;-62
2023/10/09 13:33:22;;;;;;;1.80;1.20;;;;;;;;;;5092408;28;20426;-62
2023/10/09 13:35:50;;;;;;;1.10;1.00;;;;;;;;;;5092255;28;21356;-62
2023/10/09 13:38:18;;;;;;;0.80;0.80;;;;;;;;;;5092257;28;20454;-62
2023/10/09 13:40:46;;;;;;;4.00;1.03;;;;;;;;;;5092337;28;20470;-62
2023/10/09 13:43:16;;;;;;;1.20;1.10;;;;;;;;;;5092227;28;20980;-61
2023/10/09 13:45:49;;;;;;;1.00;1.00;;;;;;;;;;5091902;28;20452;-62
2023/10/09 13:48:20;;;;;;;0.77;0.77;;;;;;;;;;5091233;27;20481;-61
2023/10/09 13:50:48;;;;;;;3.80;1.10;;;;;;;;;;5092660;28;20767;-62
2023/10/09 13:53:15;;;;;;;0.80;0.80;;;;;;;;;;5092383;28;20435;-63
2023/10/09 13:55:44;;;;;;;1.97;1.33;;;;;;;;;;5092360;28;20435;-62
2023/10/09 13:58:14;;;;;;;2.20;1.47;;;;;;;;;;5092587;28;20457;-62
2023/10/09 14:00:43;;;;;;;0.83;0.83;;;;;;;;;;5092944;28;20443;-62
2023/10/09 14:03:13;;;;;;;1.63;1.53;;;;;;;;;;5092421;28;20427;-62
2023/10/09 14:05:51;;;;;;;0.70;0.70;;;;;;;;;;5092501;28;20446;-62
2023/10/09 14:08:21;;;;;;;1.10;1.10;;;;;;;;;;5092139;28;20978;-62
2023/10/09 14:10:49;;;;;;;0.70;0.70;;;;;;;;;;5092287;28;20440;-62
2023/10/09 14:13:25;;;;;;;1.73;1.53;;;;;;;;;;5092417;28;20436;-62
2023/10/09 14:15:54;;;;;;;1.77;1.67;;;;;;;;;;5094637;28;20773;-62
2023/10/09 14:18:21;;;;;;;0.77;0.77;;;;;;;;;;5096062;28;20474;-62
2023/10/09 14:20:49;;;;;;;0.90;0.90;;;;;;;;;;5096078;28;20460;-62
2023/10/09 14:23:20;;;;;;;0.70;0.70;;;;;;;;;;5095656;28;20439;-62
2023/10/09 14:25:49;;;;;;;1.40;1.30;;;;;;;;;;5096081;28;20444;-62
2023/10/09 14:28:19;;;;;;;1.43;1.37;;;;;;;;;;5095743;28;20473;-62
2023/10/09 14:30:53;;;;;;;0.70;0.70;;;;;;;;;;5096060;28;20422;-62
2023/10/09 14:33:23;;;;;;;3.23;1.33;;;;;;;;;;5095942;28;20450;-62
2023/10/09 14:35:52;;;;;;;0.70;0.70;;;;;;;;;;5095405;28;20442;-64
2023/10/09 14:38:26;;;;;;;0.80;0.80;;;;;;;;;;5095319;28;20441;-61
2023/10/09 14:40:57;;;;;;;1.27;1.20;;;;;;;;;;5095529;28;20423;-62
2023/10/09 14:43:28;;;;;;;1.53;1.43;;;;;;;;;;5095385;28;20485;-62
2023/10/09 14:45:55;;;;;;;0.70;0.70;;;;;;;;;;5094854;28;20478;-67
2023/10/09 14:48:25;;;;;;;1.10;1.03;;;;;;;;;;5094516;28;20566;-60
2023/10/09 14:50:53;;;;;;;1.20;1.10;;;;;;;;;;5094486;28;20447;-63
2023/10/09 14:53:22;;;;;;;1.07;1.07;;;;;;;;;;5093879;28;20836;-63
2023/10/09 14:55:55;;;;;;;1.30;1.10;;;;;;;;;;5095261;28;20436;-68
2023/10/09 14:58:24;;;;;;;0.73;0.73;;;;;;;;;;5094740;28;20450;-63
2023/10/09 15:00:54;;;;;;;0.70;0.70;;;;;;;;;;5094462;28;20450;-64
2023/10/09 15:03:21;;;;;;;0.80;0.80;;;;;;;;;;5094832;28;20447;-64
2023/10/09 15:05:49;;;;;;;1.20;1.20;;;;;;;;;;5095229;28;20497;-63
2023/10/09 15:08:17;;;;;;;1.03;1.00;;;;;;;;;;5093798;28;20897;-62
2023/10/09 15:10:48;;;;;;;1.43;1.33;;;;;;;;;;5093894;28;20478;-63
2023/10/09 15:13:16;;;;;;;0.70;0.70;;;;;;;;;;5094168;27;20462;-61
2023/10/09 15:15:43;;;;;;;1.23;1.23;;;;;;;;;;5094841;28;20475;-62
2023/10/09 15:18:13;;;;;;;0.90;0.90;;;;;;;;;;5094212;28;20443;-63
2023/10/09 15:20:40;;;;;;;1.10;1.10;;;;;;;;;;5094587;28;20447;-61
2023/10/09 15:23:08;;;;;;;0.70;0.70;;;;;;;;;;5094992;28;20431;-63
2023/10/09 15:25:39;;;;;;;2.40;2.30;;;;;;;;;;5094759;28;20578;-62
2023/10/09 15:28:06;;;;;;;0.80;0.80;;;;;;;;;;5094018;28;20450;-63
2023/10/09 15:30:34;;;;;;;1.10;1.10;;;;;;;;;;5094449;28;20558;-62
2023/10/09 15:33:02;;;;;;;0.90;0.90;;;;;;;;;;5094003;28;20526;-62
2023/10/09 15:35:34;;;;;;;2.50;0.93;;;;;;;;;;5094241;28;20486;-68
2023/10/09 15:38:03;;;;;;;1.70;1.60;;;;;;;;;;5094134;28;20758;-68
2023/10/09 15:40:33;;;;;;;1.07;1.07;;;;;;;;;;5094334;28;20446;-77
2023/10/09 15:43:00;;;;;;;0.83;0.83;;;;;;;;;;5094487;28;20502;-65
2023/10/09 15:45:29;;;;;;;1.90;1.80;;;;;;;;;;5094155;28;20479;-70
2023/10/09 15:47:57;;;;;;;1.10;1.00;;;;;;;;;;5093616;28;20464;-65
2023/10/09 15:50:25;;;;;;;0.80;0.80;;;;;;;;;;5094238;28;20475;-72
2023/10/09 15:52:55;;;;;;;0.80;0.80;;;;;;;;;;5093752;28;20900;-72
2023/10/09 15:55:24;;;;;;;0.90;0.90;;;;;;;;;;5094074;28;20450;-75
2023/10/09 15:57:54;;;;;;;0.90;0.87;;;;;;;;;;5093864;28;20492;-64
2023/10/09 16:00:21;;;;;;;1.30;1.20;;;;;;;;;;5093930;28;20840;-63
2023/10/09 16:02:52;;;;;;;1.43;1.37;;;;;;;;;;5093221;28;20535;-63
2023/10/09 16:05:25;;;;;;;1.27;1.17;;;;;;;;;;5093783;28;20423;-63
2023/10/09 16:07:53;;;;;;;1.70;1.60;;;;;;;;;;5093468;28;20481;-64